sensor_id;sensor_type;location;lat;lon;timestamp;P1;durP1;ratioP1;P2;durP2;ratioP2
49384;SDS011;36795;45.028;38.968;2023-02-27T00:00:45;27.52;;;6.93;;
49384;SDS011;36795;45.028;38.968;2023-02-27T00:03:32;23.08;;;7.00;;
49384;SDS011;36795;45.028;38.968;2023-02-27T00:06:18;24.50;;;7.00;;
49384;SDS011;36795;45.028;38.968;2023-02-27T00:09:04;26.17;;;8.13;;
49384;SDS011;36795;45.028;38.968;2023-02-27T00:11:52;24.70;;;7.18;;
49384;SDS011;36795;45.028;38.968;2023-02-27T00:14:39;23.60;;;7.12;;
49384;SDS011;36795;45.028;38.968;2023-02-27T00:17:25;27.00;;;7.47;;
49384;SDS011;36795;45.028;38.968;2023-02-27T00:20:15;30.17;;;8.68;;
49384;SDS011;36795;45.028;38.968;2023-02-27T00:23:01;26.15;;;7.53;;
49384;SDS011;36795;45.028;38.968;2023-02-27T00:25:47;35.78;;;8.95;;
49384;SDS011;36795;45.028;38.968;2023-02-27T00:28:33;34.30;;;9.25;;
49384;SDS011;36795;45.028;38.968;2023-02-27T00:31:21;47.25;;;12.23;;
49384;SDS011;36795;45.028;38.968;2023-02-27T00:34:07;25.77;;;8.30;;
49384;SDS011;36795;45.028;38.968;2023-02-27T00:36:54;33.08;;;9.88;;
49384;SDS011;36795;45.028;38.968;2023-02-27T00:39:42;30.45;;;9.10;;
49384;SDS011;36795;45.028;38.968;2023-02-27T00:42:28;30.62;;;8.15;;
49384;SDS011;36795;45.028;38.968;2023-02-27T00:45:15;32.10;;;8.52;;
49384;SDS011;36795;45.028;38.968;2023-02-27T00:48:03;28.38;;;9.15;;
49384;SDS011;36795;45.028;38.968;2023-02-27T00:50:49;32.95;;;8.95;;
49384;SDS011;36795;45.028;38.968;2023-02-27T00:53:35;26.12;;;7.80;;
49384;SDS011;36795;45.028;38.968;2023-02-27T00:56:22;28.00;;;7.93;;
49384;SDS011;36795;45.028;38.968;2023-02-27T00:59:08;27.65;;;8.13;;
49384;SDS011;36795;45.028;38.968;2023-02-27T01:01:54;29.00;;;8.30;;
49384;SDS011;36795;45.028;38.968;2023-02-27T01:04:40;27.23;;;8.27;;
49384;SDS011;36795;45.028;38.968;2023-02-27T01:07:26;42.70;;;10.80;;
49384;SDS011;36795;45.028;38.968;2023-02-27T01:10:13;42.47;;;11.73;;
49384;SDS011;36795;45.028;38.968;2023-02-27T01:12:59;40.55;;;9.43;;
49384;SDS011;36795;45.028;38.968;2023-02-27T01:15:45;42.25;;;9.55;;
49384;SDS011;36795;45.028;38.968;2023-02-27T01:18:32;32.88;;;8.68;;
49384;SDS011;36795;45.028;38.968;2023-02-27T01:21:18;26.75;;;7.85;;
49384;SDS011;36795;45.028;38.968;2023-02-27T01:24:04;30.27;;;9.88;;
49384;SDS011;36795;45.028;38.968;2023-02-27T01:26:51;26.23;;;8.55;;
49384;SDS011;36795;45.028;38.968;2023-02-27T01:29:37;34.92;;;9.45;;
49384;SDS011;36795;45.028;38.968;2023-02-27T01:32:24;33.70;;;8.60;;
49384;SDS011;36795;45.028;38.968;2023-02-27T01:35:10;30.70;;;13.65;;
49384;SDS011;36795;45.028;38.968;2023-02-27T01:38:03;30.67;;;9.50;;
49384;SDS011;36795;45.028;38.968;2023-02-27T01:40:50;33.35;;;11.38;;
49384;SDS011;36795;45.028;38.968;2023-02-27T01:43:56;32.55;;;11.10;;
49384;SDS011;36795;45.028;38.968;2023-02-27T01:46:43;27.83;;;9.23;;
49384;SDS011;36795;45.028;38.968;2023-02-27T01:49:31;30.62;;;9.77;;
49384;SDS011;36795;45.028;38.968;2023-02-27T01:52:17;30.45;;;9.00;;
49384;SDS011;36795;45.028;38.968;2023-02-27T01:55:04;30.55;;;9.82;;
49384;SDS011;36795;45.028;38.968;2023-02-27T01:57:56;34.78;;;9.07;;
49384;SDS011;36795;45.028;38.968;2023-02-27T02:00:42;31.48;;;9.43;;
49384;SDS011;36795;45.028;38.968;2023-02-27T02:03:45;27.20;;;8.48;;
49384;SDS011;36795;45.028;38.968;2023-02-27T02:06:33;27.42;;;9.77;;
49384;SDS011;36795;45.028;38.968;2023-02-27T02:09:20;29.42;;;10.10;;
49384;SDS011;36795;45.028;38.968;2023-02-27T02:12:07;32.85;;;9.88;;
49384;SDS011;36795;45.028;38.968;2023-02-27T02:14:53;33.03;;;9.63;;
49384;SDS011;36795;45.028;38.968;2023-02-27T02:26:59;35.20;;;10.93;;
49384;SDS011;36795;45.028;38.968;2023-02-27T02:50:47;29.02;;;9.90;;
49384;SDS011;36795;45.028;38.968;2023-02-27T02:56:26;36.50;;;11.60;;
49384;SDS011;36795;45.028;38.968;2023-02-27T03:02:09;35.80;;;10.57;;
49384;SDS011;36795;45.028;38.968;2023-02-27T03:04:57;43.53;;;12.90;;
49384;SDS011;36795;45.028;38.968;2023-02-27T03:10:36;34.35;;;10.68;;
49384;SDS011;36795;45.028;38.968;2023-02-27T03:16:27;32.20;;;11.05;;
49384;SDS011;36795;45.028;38.968;2023-02-27T03:19:22;29.30;;;10.23;;
49384;SDS011;36795;45.028;38.968;2023-02-27T03:22:11;35.22;;;10.85;;
49384;SDS011;36795;45.028;38.968;2023-02-27T03:25:01;34.38;;;10.57;;
49384;SDS011;36795;45.028;38.968;2023-02-27T03:27:52;49.35;;;12.93;;
49384;SDS011;36795;45.028;38.968;2023-02-27T03:30:44;27.95;;;10.07;;
49384;SDS011;36795;45.028;38.968;2023-02-27T03:33:47;42.13;;;11.05;;
49384;SDS011;36795;45.028;38.968;2023-02-27T03:45:30;34.97;;;11.18;;
49384;SDS011;36795;45.028;38.968;2023-02-27T03:48:17;42.85;;;11.18;;
49384;SDS011;36795;45.028;38.968;2023-02-27T03:51:03;35.25;;;10.55;;
49384;SDS011;36795;45.028;38.968;2023-02-27T03:53:51;37.88;;;10.80;;
49384;SDS011;36795;45.028;38.968;2023-02-27T03:56:50;128.20;;;18.52;;
49384;SDS011;36795;45.028;38.968;2023-02-27T03:59:40;43.35;;;10.73;;
49384;SDS011;36795;45.028;38.968;2023-02-27T04:02:26;57.70;;;11.93;;
49384;SDS011;36795;45.028;38.968;2023-02-27T04:05:13;32.55;;;10.75;;
49384;SDS011;36795;45.028;38.968;2023-02-27T04:08:09;52.83;;;12.37;;
49384;SDS011;36795;45.028;38.968;2023-02-27T04:17:03;41.30;;;12.20;;
49384;SDS011;36795;45.028;38.968;2023-02-27T04:19:58;55.63;;;14.80;;
49384;SDS011;36795;45.028;38.968;2023-02-27T04:26:03;45.83;;;12.70;;
49384;SDS011;36795;45.028;38.968;2023-02-27T04:28:47;63.50;;;14.30;;
49384;SDS011;36795;45.028;38.968;2023-02-27T04:32:13;60.12;;;15.50;;
49384;SDS011;36795;45.028;38.968;2023-02-27T04:34:52;75.35;;;16.70;;
49384;SDS011;36795;45.028;38.968;2023-02-27T04:40:37;51.97;;;13.25;;
49384;SDS011;36795;45.028;38.968;2023-02-27T04:43:33;42.78;;;10.73;;
49384;SDS011;36795;45.028;38.968;2023-02-27T04:46:21;51.97;;;12.98;;
49384;SDS011;36795;45.028;38.968;2023-02-27T04:52:18;38.95;;;11.10;;
49384;SDS011;36795;45.028;38.968;2023-02-27T04:55:07;64.75;;;13.75;;
49384;SDS011;36795;45.028;38.968;2023-02-27T04:57:59;40.95;;;11.77;;
49384;SDS011;36795;45.028;38.968;2023-02-27T05:00:47;40.40;;;12.68;;
49384;SDS011;36795;45.028;38.968;2023-02-27T05:03:38;47.28;;;12.77;;
49384;SDS011;36795;45.028;38.968;2023-02-27T05:06:26;58.83;;;12.93;;
49384;SDS011;36795;45.028;38.968;2023-02-27T05:09:19;53.22;;;12.93;;
49384;SDS011;36795;45.028;38.968;2023-02-27T05:12:27;43.25;;;11.90;;
49384;SDS011;36795;45.028;38.968;2023-02-27T05:15:25;58.58;;;14.80;;
49384;SDS011;36795;45.028;38.968;2023-02-27T05:18:13;49.97;;;15.43;;
49384;SDS011;36795;45.028;38.968;2023-02-27T05:21:21;56.47;;;15.93;;
49384;SDS011;36795;45.028;38.968;2023-02-27T05:24:15;42.80;;;12.43;;
49384;SDS011;36795;45.028;38.968;2023-02-27T05:30:09;49.43;;;14.13;;
49384;SDS011;36795;45.028;38.968;2023-02-27T05:35:46;53.70;;;14.00;;
49384;SDS011;36795;45.028;38.968;2023-02-27T05:38:35;54.45;;;14.80;;
49384;SDS011;36795;45.028;38.968;2023-02-27T05:41:36;53.42;;;13.40;;
49384;SDS011;36795;45.028;38.968;2023-02-27T05:44:25;48.70;;;14.57;;
49384;SDS011;36795;45.028;38.968;2023-02-27T05:47:30;45.42;;;13.25;;
49384;SDS011;36795;45.028;38.968;2023-02-27T05:50:19;46.90;;;15.43;;
49384;SDS011;36795;45.028;38.968;2023-02-27T05:53:13;55.83;;;13.35;;
49384;SDS011;36795;45.028;38.968;2023-02-27T05:56:01;55.10;;;14.70;;
49384;SDS011;36795;45.028;38.968;2023-02-27T05:59:00;62.22;;;14.32;;
49384;SDS011;36795;45.028;38.968;2023-02-27T06:01:48;78.00;;;19.20;;
49384;SDS011;36795;45.028;38.968;2023-02-27T06:04:35;66.00;;;15.27;;
49384;SDS011;36795;45.028;38.968;2023-02-27T06:07:29;39.53;;;12.20;;
49384;SDS011;36795;45.028;38.968;2023-02-27T06:10:17;47.00;;;12.32;;
49384;SDS011;36795;45.028;38.968;2023-02-27T06:13:03;45.85;;;14.75;;
49384;SDS011;36795;45.028;38.968;2023-02-27T06:15:50;45.70;;;13.20;;
49384;SDS011;36795;45.028;38.968;2023-02-27T06:18:36;51.80;;;15.20;;
49384;SDS011;36795;45.028;38.968;2023-02-27T06:21:23;40.22;;;11.40;;
49384;SDS011;36795;45.028;38.968;2023-02-27T06:24:09;41.40;;;10.75;;
49384;SDS011;36795;45.028;38.968;2023-02-27T06:27:03;37.25;;;9.90;;
49384;SDS011;36795;45.028;38.968;2023-02-27T06:29:49;39.03;;;10.98;;
49384;SDS011;36795;45.028;38.968;2023-02-27T06:32:35;48.70;;;11.32;;
49384;SDS011;36795;45.028;38.968;2023-02-27T06:35:21;47.08;;;10.63;;
49384;SDS011;36795;45.028;38.968;2023-02-27T06:38:07;31.60;;;8.73;;
49384;SDS011;36795;45.028;38.968;2023-02-27T06:40:54;32.72;;;9.45;;
49384;SDS011;36795;45.028;38.968;2023-02-27T06:43:41;35.85;;;9.20;;
49384;SDS011;36795;45.028;38.968;2023-02-27T06:46:27;40.28;;;8.98;;
49384;SDS011;36795;45.028;38.968;2023-02-27T06:49:13;41.97;;;9.63;;
49384;SDS011;36795;45.028;38.968;2023-02-27T06:52:03;32.72;;;9.20;;
49384;SDS011;36795;45.028;38.968;2023-02-27T06:54:49;26.73;;;7.07;;
49384;SDS011;36795;45.028;38.968;2023-02-27T06:57:35;29.95;;;7.35;;
49384;SDS011;36795;45.028;38.968;2023-02-27T07:00:21;29.90;;;7.80;;
49384;SDS011;36795;45.028;38.968;2023-02-27T07:03:07;33.30;;;8.23;;
49384;SDS011;36795;45.028;38.968;2023-02-27T07:05:55;37.85;;;9.30;;
49384;SDS011;36795;45.028;38.968;2023-02-27T07:08:42;21.95;;;6.05;;
49384;SDS011;36795;45.028;38.968;2023-02-27T07:11:28;23.33;;;6.43;;
49384;SDS011;36795;45.028;38.968;2023-02-27T07:14:14;21.95;;;6.00;;
49384;SDS011;36795;45.028;38.968;2023-02-27T07:17:01;23.70;;;6.43;;
49384;SDS011;36795;45.028;38.968;2023-02-27T07:19:48;23.85;;;6.60;;
49384;SDS011;36795;45.028;38.968;2023-02-27T07:22:35;25.42;;;6.65;;
49384;SDS011;36795;45.028;38.968;2023-02-27T07:25:21;21.27;;;6.32;;
49384;SDS011;36795;45.028;38.968;2023-02-27T07:28:07;21.17;;;6.25;;
49384;SDS011;36795;45.028;38.968;2023-02-27T07:30:53;20.95;;;6.30;;
49384;SDS011;36795;45.028;38.968;2023-02-27T07:33:40;23.27;;;6.18;;
49384;SDS011;36795;45.028;38.968;2023-02-27T07:36:28;22.90;;;6.85;;
49384;SDS011;36795;45.028;38.968;2023-02-27T07:39:15;21.92;;;6.00;;
49384;SDS011;36795;45.028;38.968;2023-02-27T07:42:01;28.52;;;6.87;;
49384;SDS011;36795;45.028;38.968;2023-02-27T07:44:48;22.92;;;6.35;;
49384;SDS011;36795;45.028;38.968;2023-02-27T07:47:37;23.15;;;6.55;;
49384;SDS011;36795;45.028;38.968;2023-02-27T07:50:24;21.27;;;6.65;;
49384;SDS011;36795;45.028;38.968;2023-02-27T07:53:10;22.60;;;7.28;;
49384;SDS011;36795;45.028;38.968;2023-02-27T07:55:57;23.55;;;5.85;;
49384;SDS011;36795;45.028;38.968;2023-02-27T07:58:44;19.02;;;5.85;;
49384;SDS011;36795;45.028;38.968;2023-02-27T08:01:30;20.12;;;5.82;;
49384;SDS011;36795;45.028;38.968;2023-02-27T08:04:17;21.02;;;6.22;;
49384;SDS011;36795;45.028;38.968;2023-02-27T08:07:06;28.05;;;6.30;;
49384;SDS011;36795;45.028;38.968;2023-02-27T08:09:53;22.02;;;6.28;;
49384;SDS011;36795;45.028;38.968;2023-02-27T08:12:39;23.42;;;5.80;;
49384;SDS011;36795;45.028;38.968;2023-02-27T08:15:25;24.20;;;5.50;;
49384;SDS011;36795;45.028;38.968;2023-02-27T08:18:11;22.00;;;5.68;;
49384;SDS011;36795;45.028;38.968;2023-02-27T08:20:58;17.45;;;4.78;;
49384;SDS011;36795;45.028;38.968;2023-02-27T08:23:43;23.62;;;5.80;;
49384;SDS011;36795;45.028;38.968;2023-02-27T08:26:30;22.65;;;5.80;;
49384;SDS011;36795;45.028;38.968;2023-02-27T08:29:19;42.22;;;10.27;;
49384;SDS011;36795;45.028;38.968;2023-02-27T08:32:05;19.95;;;5.00;;
49384;SDS011;36795;45.028;38.968;2023-02-27T08:34:51;20.55;;;5.60;;
49384;SDS011;36795;45.028;38.968;2023-02-27T08:37:39;20.62;;;5.32;;
49384;SDS011;36795;45.028;38.968;2023-02-27T08:40:25;23.80;;;6.40;;
49384;SDS011;36795;45.028;38.968;2023-02-27T08:43:11;22.25;;;5.78;;
49384;SDS011;36795;45.028;38.968;2023-02-27T08:45:57;16.90;;;5.18;;
49384;SDS011;36795;45.028;38.968;2023-02-27T08:48:43;19.85;;;5.70;;
49384;SDS011;36795;45.028;38.968;2023-02-27T08:51:30;18.52;;;4.87;;
49384;SDS011;36795;45.028;38.968;2023-02-27T08:54:16;17.33;;;5.05;;
49384;SDS011;36795;45.028;38.968;2023-02-27T08:57:03;19.23;;;5.40;;
49384;SDS011;36795;45.028;38.968;2023-02-27T08:59:49;21.33;;;5.87;;
49384;SDS011;36795;45.028;38.968;2023-02-27T09:02:37;19.25;;;5.28;;
49384;SDS011;36795;45.028;38.968;2023-02-27T09:05:24;22.77;;;5.20;;
49384;SDS011;36795;45.028;38.968;2023-02-27T09:08:10;18.83;;;5.78;;
49384;SDS011;36795;45.028;38.968;2023-02-27T09:10:57;19.65;;;5.35;;
49384;SDS011;36795;45.028;38.968;2023-02-27T09:13:43;17.62;;;4.85;;
49384;SDS011;36795;45.028;38.968;2023-02-27T09:16:29;23.62;;;5.05;;
49384;SDS011;36795;45.028;38.968;2023-02-27T09:19:15;17.62;;;4.90;;
49384;SDS011;36795;45.028;38.968;2023-02-27T09:22:02;16.12;;;5.00;;
49384;SDS011;36795;45.028;38.968;2023-02-27T09:24:47;17.12;;;5.32;;
49384;SDS011;36795;45.028;38.968;2023-02-27T09:27:34;18.10;;;5.05;;
49384;SDS011;36795;45.028;38.968;2023-02-27T09:30:21;17.35;;;5.50;;
49384;SDS011;36795;45.028;38.968;2023-02-27T09:33:07;19.65;;;5.32;;
49384;SDS011;36795;45.028;38.968;2023-02-27T09:35:53;17.48;;;5.78;;
49384;SDS011;36795;45.028;38.968;2023-02-27T09:38:40;17.67;;;5.32;;
49384;SDS011;36795;45.028;38.968;2023-02-27T09:47:09;22.08;;;5.68;;
49384;SDS011;36795;45.028;38.968;2023-02-27T09:49:59;21.48;;;5.80;;
49384;SDS011;36795;45.028;38.968;2023-02-27T09:52:45;19.23;;;5.20;;
49384;SDS011;36795;45.028;38.968;2023-02-27T09:55:33;22.80;;;5.68;;
49384;SDS011;36795;45.028;38.968;2023-02-27T09:58:29;22.23;;;5.87;;
49384;SDS011;36795;45.028;38.968;2023-02-27T10:01:31;21.62;;;5.62;;
49384;SDS011;36795;45.028;38.968;2023-02-27T10:07:14;19.92;;;5.43;;
49384;SDS011;36795;45.028;38.968;2023-02-27T10:15:57;24.12;;;5.80;;
49384;SDS011;36795;45.028;38.968;2023-02-27T10:18:50;18.25;;;5.62;;
49384;SDS011;36795;45.028;38.968;2023-02-27T10:21:40;22.85;;;5.57;;
49384;SDS011;36795;45.028;38.968;2023-02-27T10:24:32;19.37;;;5.40;;
49384;SDS011;36795;45.028;38.968;2023-02-27T10:27:21;22.87;;;5.68;;
49384;SDS011;36795;45.028;38.968;2023-02-27T10:30:26;21.60;;;5.65;;
49384;SDS011;36795;45.028;38.968;2023-02-27T10:36:17;23.50;;;5.80;;
49384;SDS011;36795;45.028;38.968;2023-02-27T10:39:06;26.75;;;6.62;;
49384;SDS011;36795;45.028;38.968;2023-02-27T10:41:52;24.52;;;5.57;;
49384;SDS011;36795;45.028;38.968;2023-02-27T10:44:39;19.55;;;5.22;;
49384;SDS011;36795;45.028;38.968;2023-02-27T10:47:25;20.67;;;5.60;;
49384;SDS011;36795;45.028;38.968;2023-02-27T10:50:19;17.02;;;4.90;;
49384;SDS011;36795;45.028;38.968;2023-02-27T10:53:15;18.52;;;5.65;;
49384;SDS011;36795;45.028;38.968;2023-02-27T10:56:03;20.65;;;5.15;;
49384;SDS011;36795;45.028;38.968;2023-02-27T10:59:05;21.87;;;5.53;;
49384;SDS011;36795;45.028;38.968;2023-02-27T11:01:53;18.75;;;5.07;;
49384;SDS011;36795;45.028;38.968;2023-02-27T11:04:41;17.25;;;5.07;;
49384;SDS011;36795;45.028;38.968;2023-02-27T11:07:36;24.17;;;6.12;;
49384;SDS011;36795;45.028;38.968;2023-02-27T11:10:24;23.70;;;6.25;;
49384;SDS011;36795;45.028;38.968;2023-02-27T11:13:17;19.15;;;5.40;;
49384;SDS011;36795;45.028;38.968;2023-02-27T11:16:12;25.23;;;5.60;;
49384;SDS011;36795;45.028;38.968;2023-02-27T11:18:59;21.27;;;5.95;;
49384;SDS011;36795;45.028;38.968;2023-02-27T11:22:01;20.83;;;5.55;;
49384;SDS011;36795;45.028;38.968;2023-02-27T11:24:51;25.67;;;6.00;;
49384;SDS011;36795;45.028;38.968;2023-02-27T11:27:37;19.90;;;5.47;;
49384;SDS011;36795;45.028;38.968;2023-02-27T11:30:25;17.58;;;4.57;;
49384;SDS011;36795;45.028;38.968;2023-02-27T11:33:18;20.88;;;5.72;;
49384;SDS011;36795;45.028;38.968;2023-02-27T11:36:05;23.77;;;6.18;;
49384;SDS011;36795;45.028;38.968;2023-02-27T11:38:54;21.10;;;5.53;;
49384;SDS011;36795;45.028;38.968;2023-02-27T11:41:41;20.80;;;6.00;;
49384;SDS011;36795;45.028;38.968;2023-02-27T11:44:28;20.35;;;5.35;;
49384;SDS011;36795;45.028;38.968;2023-02-27T11:47:15;23.95;;;6.30;;
49384;SDS011;36795;45.028;38.968;2023-02-27T11:50:09;18.90;;;5.65;;
49384;SDS011;36795;45.028;38.968;2023-02-27T11:53:05;23.10;;;5.95;;
49384;SDS011;36795;45.028;38.968;2023-02-27T11:55:53;21.48;;;5.62;;
49384;SDS011;36795;45.028;38.968;2023-02-27T11:58:59;22.87;;;6.47;;
49384;SDS011;36795;45.028;38.968;2023-02-27T12:05:08;19.98;;;5.57;;
49384;SDS011;36795;45.028;38.968;2023-02-27T12:08:02;18.58;;;4.75;;
49384;SDS011;36795;45.028;38.968;2023-02-27T12:10:56;17.23;;;5.73;;
49384;SDS011;36795;45.028;38.968;2023-02-27T12:13:44;19.62;;;5.32;;
49384;SDS011;36795;45.028;38.968;2023-02-27T12:16:36;17.48;;;5.47;;
49384;SDS011;36795;45.028;38.968;2023-02-27T12:22:26;19.17;;;5.43;;
49384;SDS011;36795;45.028;38.968;2023-02-27T12:25:32;21.52;;;6.00;;
49384;SDS011;36795;45.028;38.968;2023-02-27T12:28:26;20.52;;;5.80;;
49384;SDS011;36795;45.028;38.968;2023-02-27T12:31:26;24.45;;;6.20;;
49384;SDS011;36795;45.028;38.968;2023-02-27T12:34:23;20.27;;;5.50;;
49384;SDS011;36795;45.028;38.968;2023-02-27T12:37:13;17.75;;;5.53;;
49384;SDS011;36795;45.028;38.968;2023-02-27T12:40:00;21.83;;;5.85;;
49384;SDS011;36795;45.028;38.968;2023-02-27T12:42:58;19.80;;;5.12;;
49384;SDS011;36795;45.028;38.968;2023-02-27T12:45:54;17.90;;;6.35;;
49384;SDS011;36795;45.028;38.968;2023-02-27T13:09:18;19.48;;;6.62;;
49384;SDS011;36795;45.028;38.968;2023-02-27T13:14:53;28.30;;;7.50;;
49384;SDS011;36795;45.028;38.968;2023-02-27T13:17:48;21.15;;;6.72;;
49384;SDS011;36795;45.028;38.968;2023-02-27T13:20:42;22.30;;;6.62;;
49384;SDS011;36795;45.028;38.968;2023-02-27T13:23:51;26.95;;;6.62;;
49384;SDS011;36795;45.028;38.968;2023-02-27T13:26:44;22.70;;;5.90;;
49384;SDS011;36795;45.028;38.968;2023-02-27T13:29:35;23.33;;;6.50;;
49384;SDS011;36795;45.028;38.968;2023-02-27T13:38:42;21.90;;;6.32;;
49384;SDS011;36795;45.028;38.968;2023-02-27T13:53:12;22.52;;;6.82;;
49384;SDS011;36795;45.028;38.968;2023-02-27T13:56:22;21.50;;;5.87;;
49384;SDS011;36795;45.028;38.968;2023-02-27T13:59:26;23.23;;;6.32;;
49384;SDS011;36795;45.028;38.968;2023-02-27T14:05:11;19.87;;;6.05;;
49384;SDS011;36795;45.028;38.968;2023-02-27T14:10:56;19.90;;;6.28;;
49384;SDS011;36795;45.028;38.968;2023-02-27T14:19:25;22.37;;;6.90;;
49384;SDS011;36795;45.028;38.968;2023-02-27T14:25:21;25.10;;;6.55;;
49384;SDS011;36795;45.028;38.968;2023-02-27T14:28:41;24.98;;;7.10;;
49384;SDS011;36795;45.028;38.968;2023-02-27T14:31:20;28.33;;;7.57;;
49384;SDS011;36795;45.028;38.968;2023-02-27T14:34:09;24.67;;;7.40;;
49384;SDS011;36795;45.028;38.968;2023-02-27T14:37:00;27.30;;;7.30;;
49384;SDS011;36795;45.028;38.968;2023-02-27T14:39:50;27.92;;;8.30;;
49384;SDS011;36795;45.028;38.968;2023-02-27T14:42:52;31.80;;;7.07;;
49384;SDS011;36795;45.028;38.968;2023-02-27T14:45:41;26.42;;;6.90;;
49384;SDS011;36795;45.028;38.968;2023-02-27T14:48:30;34.58;;;18.25;;
49384;SDS011;36795;45.028;38.968;2023-02-27T14:51:18;24.50;;;6.68;;
49384;SDS011;36795;45.028;38.968;2023-02-27T14:57:01;29.12;;;7.22;;
49384;SDS011;36795;45.028;38.968;2023-02-27T14:59:51;28.33;;;7.78;;
49384;SDS011;36795;45.028;38.968;2023-02-27T15:02:38;30.77;;;8.13;;
49384;SDS011;36795;45.028;38.968;2023-02-27T15:05:26;23.35;;;6.53;;
49384;SDS011;36795;45.028;38.968;2023-02-27T15:08:15;24.37;;;8.05;;
49384;SDS011;36795;45.028;38.968;2023-02-27T15:11:02;25.50;;;6.47;;
49384;SDS011;36795;45.028;38.968;2023-02-27T15:13:51;29.00;;;6.25;;
49384;SDS011;36795;45.028;38.968;2023-02-27T15:16:39;20.17;;;6.20;;
49384;SDS011;36795;45.028;38.968;2023-02-27T15:19:27;24.42;;;6.65;;
49384;SDS011;36795;45.028;38.968;2023-02-27T15:22:18;25.10;;;6.47;;
49384;SDS011;36795;45.028;38.968;2023-02-27T15:25:24;20.92;;;6.30;;
49384;SDS011;36795;45.028;38.968;2023-02-27T15:28:29;20.90;;;6.10;;
49384;SDS011;36795;45.028;38.968;2023-02-27T15:31:20;27.27;;;6.43;;
49384;SDS011;36795;45.028;38.968;2023-02-27T15:34:08;24.30;;;6.80;;
49384;SDS011;36795;45.028;38.968;2023-02-27T15:36:56;21.90;;;6.18;;
49384;SDS011;36795;45.028;38.968;2023-02-27T15:39:43;22.08;;;6.62;;
49384;SDS011;36795;45.028;38.968;2023-02-27T15:42:30;24.02;;;7.45;;
49384;SDS011;36795;45.028;38.968;2023-02-27T15:45:19;27.30;;;7.62;;
49384;SDS011;36795;45.028;38.968;2023-02-27T15:48:06;20.52;;;6.53;;
49384;SDS011;36795;45.028;38.968;2023-02-27T15:50:57;21.92;;;6.40;;
49384;SDS011;36795;45.028;38.968;2023-02-27T15:53:48;23.55;;;6.35;;
49384;SDS011;36795;45.028;38.968;2023-02-27T15:56:35;22.85;;;6.55;;
49384;SDS011;36795;45.028;38.968;2023-02-27T15:59:22;25.83;;;6.72;;
49384;SDS011;36795;45.028;38.968;2023-02-27T16:02:22;24.83;;;6.35;;
49384;SDS011;36795;45.028;38.968;2023-02-27T16:08:12;31.65;;;6.20;;
49384;SDS011;36795;45.028;38.968;2023-02-27T16:11:02;21.27;;;6.07;;
49384;SDS011;36795;45.028;38.968;2023-02-27T16:13:48;23.92;;;6.65;;
49384;SDS011;36795;45.028;38.968;2023-02-27T16:16:35;21.10;;;5.93;;
49384;SDS011;36795;45.028;38.968;2023-02-27T16:19:26;22.70;;;6.80;;
49384;SDS011;36795;45.028;38.968;2023-02-27T16:22:14;23.05;;;6.25;;
49384;SDS011;36795;45.028;38.968;2023-02-27T16:25:16;24.35;;;6.53;;
49384;SDS011;36795;45.028;38.968;2023-02-27T16:28:05;26.08;;;6.93;;
49384;SDS011;36795;45.028;38.968;2023-02-27T16:30:56;27.05;;;7.10;;
49384;SDS011;36795;45.028;38.968;2023-02-27T16:33:42;26.52;;;7.87;;
49384;SDS011;36795;45.028;38.968;2023-02-27T16:36:29;25.10;;;7.68;;
49384;SDS011;36795;45.028;38.968;2023-02-27T16:39:16;32.67;;;8.07;;
49384;SDS011;36795;45.028;38.968;2023-02-27T16:42:02;27.17;;;7.95;;
49384;SDS011;36795;45.028;38.968;2023-02-27T16:44:48;28.65;;;7.60;;
49384;SDS011;36795;45.028;38.968;2023-02-27T16:47:34;30.75;;;7.40;;
49384;SDS011;36795;45.028;38.968;2023-02-27T16:50:31;22.35;;;7.62;;
49384;SDS011;36795;45.028;38.968;2023-02-27T16:53:18;26.35;;;6.72;;
49384;SDS011;36795;45.028;38.968;2023-02-27T16:56:04;30.10;;;8.38;;
49384;SDS011;36795;45.028;38.968;2023-02-27T16:58:51;43.00;;;10.02;;
49384;SDS011;36795;45.028;38.968;2023-02-27T17:01:38;41.97;;;9.95;;
49384;SDS011;36795;45.028;38.968;2023-02-27T17:04:24;26.20;;;7.87;;
49384;SDS011;36795;45.028;38.968;2023-02-27T17:07:12;49.45;;;10.13;;
49384;SDS011;36795;45.028;38.968;2023-02-27T17:09:59;23.40;;;7.35;;
49384;SDS011;36795;45.028;38.968;2023-02-27T17:12:45;52.03;;;10.48;;
49384;SDS011;36795;45.028;38.968;2023-02-27T17:15:31;25.12;;;7.62;;
49384;SDS011;36795;45.028;38.968;2023-02-27T17:18:19;37.22;;;8.18;;
49384;SDS011;36795;45.028;38.968;2023-02-27T17:21:06;32.67;;;7.95;;
49384;SDS011;36795;45.028;38.968;2023-02-27T17:23:52;24.98;;;7.20;;
49384;SDS011;36795;45.028;38.968;2023-02-27T17:26:38;24.27;;;7.93;;
49384;SDS011;36795;45.028;38.968;2023-02-27T17:29:25;23.05;;;7.20;;
49384;SDS011;36795;45.028;38.968;2023-02-27T17:32:13;25.50;;;7.43;;
49384;SDS011;36795;45.028;38.968;2023-02-27T17:35:00;23.05;;;6.68;;
49384;SDS011;36795;45.028;38.968;2023-02-27T17:37:47;29.65;;;7.68;;
49384;SDS011;36795;45.028;38.968;2023-02-27T17:40:37;24.73;;;7.32;;
49384;SDS011;36795;45.028;38.968;2023-02-27T17:43:24;21.20;;;7.05;;
49384;SDS011;36795;45.028;38.968;2023-02-27T17:46:11;32.05;;;7.75;;
49384;SDS011;36795;45.028;38.968;2023-02-27T17:48:58;24.70;;;8.63;;
49384;SDS011;36795;45.028;38.968;2023-02-27T17:51:47;29.30;;;11.70;;
49384;SDS011;36795;45.028;38.968;2023-02-27T17:54:34;74.05;;;15.80;;
49384;SDS011;36795;45.028;38.968;2023-02-27T17:57:20;30.02;;;12.00;;
49384;SDS011;36795;45.028;38.968;2023-02-27T18:00:07;33.85;;;13.23;;
49384;SDS011;36795;45.028;38.968;2023-02-27T18:02:54;30.40;;;12.75;;
49384;SDS011;36795;45.028;38.968;2023-02-27T18:05:50;32.78;;;12.63;;
49384;SDS011;36795;45.028;38.968;2023-02-27T18:08:37;29.17;;;12.48;;
49384;SDS011;36795;45.028;38.968;2023-02-27T18:11:24;27.33;;;9.40;;
49384;SDS011;36795;45.028;38.968;2023-02-27T18:14:10;33.17;;;8.73;;
49384;SDS011;36795;45.028;38.968;2023-02-27T18:16:56;25.75;;;8.30;;
49384;SDS011;36795;45.028;38.968;2023-02-27T18:19:42;23.38;;;7.32;;
49384;SDS011;36795;45.028;38.968;2023-02-27T18:22:28;24.95;;;7.80;;
49384;SDS011;36795;45.028;38.968;2023-02-27T18:25:17;32.28;;;9.10;;
49384;SDS011;36795;45.028;38.968;2023-02-27T18:28:04;29.92;;;8.18;;
49384;SDS011;36795;45.028;38.968;2023-02-27T18:30:50;24.83;;;7.20;;
49384;SDS011;36795;45.028;38.968;2023-02-27T18:33:39;31.42;;;7.47;;
49384;SDS011;36795;45.028;38.968;2023-02-27T18:36:26;38.30;;;8.20;;
49384;SDS011;36795;45.028;38.968;2023-02-27T18:39:12;27.60;;;7.93;;
49384;SDS011;36795;45.028;38.968;2023-02-27T18:41:59;28.70;;;8.38;;
49384;SDS011;36795;45.028;38.968;2023-02-27T18:44:45;26.90;;;8.10;;
49384;SDS011;36795;45.028;38.968;2023-02-27T18:47:32;27.48;;;8.15;;
49384;SDS011;36795;45.028;38.968;2023-02-27T18:50:18;27.87;;;7.70;;
49384;SDS011;36795;45.028;38.968;2023-02-27T18:53:04;31.08;;;8.30;;
49384;SDS011;36795;45.028;38.968;2023-02-27T18:55:50;30.52;;;8.02;;
49384;SDS011;36795;45.028;38.968;2023-02-27T18:58:37;36.00;;;9.63;;
49384;SDS011;36795;45.028;38.968;2023-02-27T19:01:24;32.25;;;7.62;;
49384;SDS011;36795;45.028;38.968;2023-02-27T19:04:11;34.55;;;8.40;;